createdAt,value
2023-12-14T00:02:09.096Z,7.78
2023-12-14T00:04:54.472Z,8.45
2023-12-14T00:07:40.116Z,9.02
2023-12-14T00:10:25.664Z,8.45
2023-12-14T00:13:10.793Z,8.27
2023-12-14T00:15:56.136Z,8.10
2023-12-14T00:18:41.702Z,9.38
2023-12-14T00:21:27.256Z,8.63
2023-12-14T00:24:12.702Z,8.57
2023-12-14T00:26:58.286Z,8.60
2023-12-14T00:29:43.746Z,10.10
2023-12-14T00:32:29.253Z,11.15
2023-12-14T00:35:14.764Z,12.30
2023-12-14T00:38:00.706Z,13.55
2023-12-14T00:40:45.932Z,13.13
2023-12-14T00:43:31.763Z,11.07
2023-12-14T00:46:17.226Z,8.88
2023-12-14T00:49:03.356Z,10.80
2023-12-14T00:51:48.945Z,13.02
2023-12-14T00:54:34.354Z,11.88
2023-12-14T00:57:19.851Z,10.82
2023-12-14T01:00:05.960Z,12.50
2023-12-14T01:02:51.455Z,11.50
2023-12-14T01:05:37.274Z,8.32
2023-12-14T01:08:23.158Z,11.88
2023-12-14T01:11:09.162Z,12.75
2023-12-14T01:13:54.484Z,11.48
2023-12-14T01:16:39.830Z,9.98
2023-12-14T01:19:26.410Z,12.85
2023-12-14T01:22:12.052Z,12.68
2023-12-14T01:24:57.157Z,11.43
2023-12-14T01:27:42.587Z,13.32
2023-12-14T01:30:28.207Z,14.40
2023-12-14T01:33:13.625Z,11.75
2023-12-14T01:35:58.968Z,12.05
2023-12-14T01:38:44.323Z,9.38
2023-12-14T01:41:29.797Z,11.23
2023-12-14T01:44:15.424Z,11.80
2023-12-14T01:47:00.820Z,10.68
2023-12-14T01:49:46.304Z,14.15
2023-12-14T01:52:32.280Z,18.88
2023-12-14T01:55:18.190Z,15.77
2023-12-14T01:58:03.606Z,14.30
2023-12-14T02:00:58.134Z,13.98
2023-12-14T02:03:51.909Z,11.10
2023-12-14T02:06:37.735Z,12.32
2023-12-14T02:09:22.808Z,13.02
2023-12-14T02:12:08.263Z,12.88
2023-12-14T02:14:53.730Z,11.50
2023-12-14T02:17:39.247Z,9.85
2023-12-14T02:20:24.604Z,9.15
2023-12-14T02:23:10.288Z,9.88
2023-12-14T02:25:55.785Z,9.05
2023-12-14T02:28:41.697Z,9.15
2023-12-14T02:31:27.044Z,10.75
2023-12-14T02:34:12.500Z,9.85
2023-12-14T02:36:58.023Z,10.80
2023-12-14T02:39:43.501Z,7.72
2023-12-14T02:42:28.834Z,10.13
2023-12-14T02:45:14.426Z,10.77
2023-12-14T02:47:59.781Z,9.68
2023-12-14T02:50:45.171Z,9.73
2023-12-14T02:53:30.654Z,10.27
2023-12-14T02:56:16.219Z,6.38
2023-12-14T02:59:01.659Z,7.25
2023-12-14T03:01:46.991Z,9.43
2023-12-14T03:04:33.002Z,8.05
2023-12-14T03:07:20.203Z,6.95
2023-12-14T03:10:06.053Z,7.38
2023-12-14T03:12:52.960Z,7.35
2023-12-14T03:15:38.207Z,6.88
2023-12-14T03:18:23.795Z,6.32
2023-12-14T03:21:09.789Z,5.78
2023-12-14T03:23:55.728Z,9.00
2023-12-14T03:26:41.324Z,7.90
2023-12-14T03:29:26.909Z,7.63
2023-12-14T03:32:13.626Z,7.30
2023-12-14T03:34:59.408Z,9.55
2023-12-14T03:37:44.821Z,5.28
2023-12-14T03:40:30.344Z,6.75
2023-12-14T03:43:15.910Z,8.10
2023-12-14T03:46:01.482Z,7.38
2023-12-14T03:48:47.060Z,9.80
2023-12-14T03:51:32.794Z,6.07
2023-12-14T03:54:18.039Z,5.53
2023-12-14T03:57:03.610Z,7.75
2023-12-14T03:59:49.478Z,9.43
2023-12-14T04:02:35.311Z,7.47
2023-12-14T04:05:20.710Z,4.90
2023-12-14T04:08:06.262Z,7.32
2023-12-14T04:10:51.943Z,5.20
2023-12-14T04:13:38.608Z,5.63
2023-12-14T04:16:26.258Z,5.13
2023-12-14T04:19:12.131Z,7.30
2023-12-14T04:21:57.428Z,7.35
2023-12-14T04:24:42.860Z,5.60
2023-12-14T04:27:31.003Z,8.35
2023-12-14T04:30:16.565Z,7.20
2023-12-14T04:33:02.010Z,6.30
2023-12-14T04:35:47.546Z,7.90
2023-12-14T04:38:33.065Z,6.28
2023-12-14T04:41:18.950Z,6.28
2023-12-14T04:44:04.999Z,6.15
2023-12-14T04:46:50.443Z,6.03
2023-12-14T04:49:36.210Z,5.50
2023-12-14T04:52:21.710Z,7.35
2023-12-14T04:55:07.849Z,6.93
2023-12-14T04:57:53.442Z,5.85
2023-12-14T05:00:39.067Z,5.15
2023-12-14T05:03:24.319Z,5.57
2023-12-14T05:06:10.251Z,5.85
2023-12-14T05:08:55.776Z,6.03
2023-12-14T05:11:41.764Z,5.30
2023-12-14T05:14:29.843Z,7.53
2023-12-14T05:17:15.452Z,7.05
2023-12-14T05:20:01.111Z,6.38
2023-12-14T05:22:46.585Z,6.68
2023-12-14T05:25:32.372Z,6.78
2023-12-14T05:28:17.527Z,7.30
2023-12-14T05:31:04.042Z,7.28
2023-12-14T05:33:49.736Z,9.05
2023-12-14T05:36:35.137Z,9.13
2023-12-14T05:39:20.668Z,7.70
2023-12-14T05:42:06.722Z,7.88
2023-12-14T05:44:52.800Z,7.57
2023-12-14T05:47:39.229Z,6.22
2023-12-14T05:50:24.541Z,5.13
2023-12-14T05:53:10.280Z,7.32
2023-12-14T05:55:55.982Z,8.65
2023-12-14T05:58:41.556Z,6.18
2023-12-14T06:01:27.091Z,8.13
2023-12-14T06:04:12.440Z,5.88
2023-12-14T06:06:57.911Z,6.20
2023-12-14T06:09:43.635Z,6.82
2023-12-14T06:12:29.414Z,6.45
2023-12-14T06:15:14.849Z,7.72
2023-12-14T06:18:00.462Z,5.60
2023-12-14T06:20:45.855Z,8.48
2023-12-14T06:23:31.346Z,6.25
2023-12-14T06:26:16.791Z,6.90
2023-12-14T06:29:02.191Z,5.45
2023-12-14T06:31:47.909Z,6.78
2023-12-14T06:34:33.440Z,5.38
2023-12-14T06:37:18.994Z,11.18
2023-12-14T06:40:05.004Z,7.35
2023-12-14T06:42:51.053Z,5.82
2023-12-14T06:45:38.452Z,5.22
2023-12-14T06:48:24.002Z,6.43
2023-12-14T06:51:10.052Z,5.13
2023-12-14T06:53:55.193Z,4.63
2023-12-14T06:56:40.745Z,4.47
2023-12-14T06:59:26.185Z,5.53
2023-12-14T07:02:11.877Z,4.20
2023-12-14T07:04:57.376Z,3.58
2023-12-14T07:07:43.372Z,4.55
2023-12-14T07:10:29.340Z,3.33
2023-12-14T07:13:14.749Z,4.20
2023-12-14T07:16:00.744Z,3.90
2023-12-14T07:18:46.050Z,3.78
2023-12-14T07:21:31.297Z,2.88
2023-12-14T07:24:16.669Z,5.03
2023-12-14T07:27:02.201Z,5.18
2023-12-14T07:29:47.726Z,5.97
2023-12-14T07:32:33.300Z,4.75
2023-12-14T07:35:18.960Z,6.05
2023-12-14T07:38:04.855Z,4.80
2023-12-14T07:40:51.293Z,4.68
2023-12-14T07:43:36.567Z,4.50
2023-12-14T07:46:22.017Z,6.38
2023-12-14T07:49:07.774Z,3.83
2023-12-14T07:51:53.279Z,4.05
2023-12-14T07:54:39.084Z,4.80
2023-12-14T07:57:24.863Z,3.60
2023-12-14T08:00:11.302Z,4.38
2023-12-14T08:02:56.766Z,3.47
2023-12-14T08:05:42.277Z,3.15
2023-12-14T08:08:27.774Z,5.00
2023-12-14T08:11:13.359Z,5.45
2023-12-14T08:13:59.312Z,4.53
2023-12-14T08:16:44.881Z,3.70
2023-12-14T08:19:30.883Z,4.60
2023-12-14T08:22:16.571Z,3.63
2023-12-14T08:25:04.934Z,4.00
2023-12-14T08:27:51.603Z,4.35
2023-12-14T08:30:39.124Z,2.95
2023-12-14T08:33:24.838Z,3.70
2023-12-14T08:36:10.353Z,3.78
2023-12-14T08:38:55.933Z,3.78
2023-12-14T08:41:42.278Z,5.15
2023-12-14T08:44:27.573Z,3.60
2023-12-14T08:47:13.699Z,4.65
2023-12-14T08:49:59.416Z,3.80
2023-12-14T08:52:45.175Z,4.13
2023-12-14T08:55:30.725Z,3.35
2023-12-14T08:58:16.397Z,2.83
2023-12-14T09:01:02.312Z,3.08
2023-12-14T09:03:48.395Z,2.67
2023-12-14T09:06:34.280Z,2.45
2023-12-14T09:09:19.960Z,2.83
2023-12-14T09:12:06.013Z,3.25
2023-12-14T09:14:51.852Z,3.58
2023-12-14T09:17:38.213Z,3.42
2023-12-14T09:20:23.756Z,3.17
2023-12-14T09:23:10.491Z,2.58
2023-12-14T09:25:57.206Z,3.17
2023-12-14T09:28:43.642Z,3.45
2023-12-14T09:31:29.563Z,2.15
2023-12-14T09:34:15.313Z,3.42
2023-12-14T09:37:00.990Z,3.55
2023-12-14T09:39:46.853Z,3.60
2023-12-14T09:42:38.234Z,2.72
2023-12-14T09:45:29.951Z,3.22
2023-12-14T09:48:17.181Z,3.93
2023-12-14T09:51:02.880Z,3.03
2023-12-14T09:53:48.477Z,3.20
2023-12-14T09:56:33.946Z,2.83
2023-12-14T09:59:20.072Z,2.78
2023-12-14T10:02:12.936Z,3.53
2023-12-14T10:04:58.764Z,2.55
2023-12-14T10:07:45.699Z,3.38
2023-12-14T10:10:32.518Z,3.28
2023-12-14T10:13:17.928Z,3.92
2023-12-14T10:16:03.669Z,4.30
2023-12-14T10:18:51.993Z,3.25
2023-12-14T10:21:37.300Z,2.70
2023-12-14T10:24:23.918Z,4.03
2023-12-14T10:27:09.303Z,3.08
2023-12-14T10:29:56.491Z,2.72
2023-12-14T10:32:42.850Z,4.03
2023-12-14T10:35:28.615Z,5.32
2023-12-14T10:38:15.273Z,5.03
2023-12-14T10:41:00.606Z,3.22
2023-12-14T10:43:49.999Z,2.72
2023-12-14T10:46:38.021Z,2.95
2023-12-14T10:49:26.543Z,2.97
2023-12-14T10:52:13.393Z,3.00
2023-12-14T10:55:03.294Z,2.90
2023-12-14T10:57:50.571Z,2.40
2023-12-14T11:00:37.842Z,3.47
2023-12-14T11:03:24.229Z,5.55
2023-12-14T11:06:22.186Z,2.97
2023-12-14T11:09:09.383Z,4.45
2023-12-14T11:11:57.351Z,3.92
2023-12-14T11:14:43.911Z,4.03
2023-12-14T11:17:31.069Z,4.30
2023-12-14T11:20:26.098Z,4.35
2023-12-14T11:23:14.319Z,5.35
2023-12-14T11:26:23.756Z,3.58
2023-12-14T11:29:09.485Z,3.22
2023-12-14T11:31:54.845Z,2.38
2023-12-14T11:34:41.358Z,2.92
2023-12-14T11:37:27.145Z,3.63
2023-12-14T11:40:14.440Z,3.03
2023-12-14T11:43:10.739Z,2.38
2023-12-14T11:45:59.669Z,2.67
2023-12-14T11:48:49.738Z,3.58
2023-12-14T11:51:34.969Z,2.85
2023-12-14T11:54:21.255Z,3.15
2023-12-14T11:57:09.297Z,5.70
2023-12-14T11:59:54.613Z,3.70
2023-12-14T12:02:41.609Z,5.80
2023-12-14T12:05:41.899Z,4.05
2023-12-14T12:08:27.581Z,3.63
2023-12-14T12:11:20.690Z,3.58
2023-12-14T12:14:06.403Z,4.50
2023-12-14T12:16:53.992Z,2.92
2023-12-14T12:19:39.508Z,3.03
2023-12-14T12:22:24.823Z,3.55
2023-12-14T12:25:15.504Z,3.80
2023-12-14T12:28:02.681Z,3.83
2023-12-14T12:30:48.181Z,3.22
2023-12-14T12:33:38.601Z,4.38
2023-12-14T12:36:24.283Z,3.97
2023-12-14T12:39:09.777Z,3.60
2023-12-14T12:41:55.394Z,3.78
2023-12-14T12:44:40.882Z,3.65
2023-12-14T12:47:26.304Z,3.92
2023-12-14T12:50:12.452Z,5.38
2023-12-14T12:52:58.044Z,4.53
2023-12-14T12:55:43.393Z,4.60
2023-12-14T12:58:29.489Z,4.63
2023-12-14T13:01:14.781Z,4.80
2023-12-14T13:04:02.107Z,4.00
2023-12-14T13:06:49.466Z,3.50
2023-12-14T13:09:34.686Z,4.57
2023-12-14T13:12:20.087Z,5.93
2023-12-14T13:15:06.258Z,5.00
2023-12-14T13:17:51.631Z,4.63
2023-12-14T13:20:37.261Z,4.68
2023-12-14T13:23:23.154Z,4.55
2023-12-14T13:26:08.804Z,4.57
2023-12-14T13:28:54.425Z,4.60
2023-12-14T13:31:39.890Z,5.13
2023-12-14T13:34:25.501Z,4.25
2023-12-14T13:37:10.962Z,3.20
2023-12-14T13:39:56.686Z,4.45
2023-12-14T13:42:50.768Z,3.85
2023-12-14T13:45:44.840Z,4.75
2023-12-14T13:48:30.451Z,4.85
2023-12-14T13:51:15.851Z,3.97
2023-12-14T13:54:01.409Z,4.45
2023-12-14T13:56:46.961Z,4.28
2023-12-14T13:59:32.518Z,4.85
2023-12-14T14:02:17.895Z,3.28
2023-12-14T14:05:03.315Z,3.50
2023-12-14T14:07:48.805Z,3.72
2023-12-14T14:10:34.313Z,5.28
2023-12-14T14:13:21.221Z,3.20
2023-12-14T14:16:08.381Z,4.72
2023-12-14T14:18:54.012Z,4.57
2023-12-14T14:21:39.864Z,3.88
2023-12-14T14:24:25.660Z,4.35
2023-12-14T14:27:11.085Z,3.42
2023-12-14T14:29:57.433Z,4.75
2023-12-14T14:32:43.503Z,4.00
2023-12-14T14:35:29.910Z,3.35
2023-12-14T14:38:15.667Z,3.70
2023-12-14T14:41:01.301Z,3.75
2023-12-14T14:43:46.745Z,4.10
2023-12-14T14:46:32.255Z,3.92
2023-12-14T14:49:17.998Z,3.85
2023-12-14T14:52:03.527Z,3.42
2023-12-14T14:54:48.922Z,5.28
2023-12-14T14:57:34.835Z,4.55
2023-12-14T15:00:21.426Z,3.63
2023-12-14T15:03:10.270Z,4.03
2023-12-14T15:05:55.817Z,4.25
2023-12-14T15:08:41.528Z,3.00
2023-12-14T15:11:27.044Z,5.05
2023-12-14T15:14:12.780Z,3.65
2023-12-14T15:16:58.741Z,3.17
2023-12-14T15:19:47.025Z,3.78
2023-12-14T15:22:32.517Z,3.95
2023-12-14T15:25:18.590Z,3.00
2023-12-14T15:28:04.046Z,3.58
2023-12-14T15:30:49.614Z,4.28
2023-12-14T15:33:35.042Z,5.95
2023-12-14T15:36:20.588Z,3.50
2023-12-14T15:39:06.236Z,3.78
2023-12-14T15:41:51.590Z,4.32
2023-12-14T15:44:37.039Z,3.30
2023-12-14T15:47:22.965Z,3.50
2023-12-14T15:50:09.607Z,3.30
2023-12-14T15:52:55.532Z,4.85
2023-12-14T15:55:41.197Z,3.45
2023-12-14T15:58:27.052Z,4.05
2023-12-14T16:01:14.050Z,4.88
2023-12-14T16:03:59.479Z,3.90
2023-12-14T16:06:45.036Z,4.82
2023-12-14T16:09:30.495Z,5.10
2023-12-14T16:12:15.946Z,5.20
2023-12-14T16:15:01.546Z,4.50
2023-12-14T16:17:47.039Z,3.55
2023-12-14T16:20:32.619Z,4.10
2023-12-14T16:23:18.037Z,4.28
2023-12-14T16:26:03.561Z,3.28
2023-12-14T16:28:48.934Z,3.97
2023-12-14T16:31:41.307Z,4.90
2023-12-14T16:34:26.863Z,4.30
2023-12-14T16:37:12.209Z,4.82
2023-12-14T16:39:58.418Z,5.82
2023-12-14T16:42:43.910Z,3.33
2023-12-14T16:45:29.427Z,4.85
2023-12-14T16:48:14.925Z,3.35
2023-12-14T16:51:03.902Z,3.70
2023-12-14T16:53:49.282Z,4.18
2023-12-14T16:56:34.661Z,4.05
2023-12-14T16:59:21.045Z,4.43
2023-12-14T17:02:06.745Z,5.05
2023-12-14T17:04:52.498Z,5.20
2023-12-14T17:07:38.069Z,5.32
2023-12-14T17:10:23.727Z,3.97
2023-12-14T17:13:09.623Z,4.18
2023-12-14T17:15:54.982Z,4.18
2023-12-14T17:18:40.672Z,5.03
2023-12-14T17:21:28.624Z,5.53
2023-12-14T17:24:15.340Z,4.20
2023-12-14T17:27:00.993Z,3.72
2023-12-14T17:29:46.201Z,4.38
2023-12-14T17:32:31.616Z,5.72
2023-12-14T17:35:18.354Z,4.28
2023-12-14T17:38:03.708Z,4.90
2023-12-14T17:40:49.026Z,4.88
2023-12-14T17:43:35.618Z,6.35
2023-12-14T17:46:21.938Z,5.43
2023-12-14T17:49:07.862Z,6.65
2023-12-14T17:51:53.426Z,4.20
2023-12-14T17:54:39.973Z,5.20
2023-12-14T17:57:25.424Z,4.72
2023-12-14T18:00:11.595Z,5.15
2023-12-14T18:02:57.003Z,4.65
2023-12-14T18:05:42.812Z,4.18
2023-12-14T18:08:28.524Z,4.20
2023-12-14T18:11:14.112Z,4.90
2023-12-14T18:13:59.954Z,4.70
2023-12-14T18:16:45.780Z,4.25
2023-12-14T18:19:31.518Z,4.97
2023-12-14T18:22:16.903Z,5.63
2023-12-14T18:25:04.072Z,5.45
2023-12-14T18:27:52.406Z,5.35
2023-12-14T18:30:38.162Z,4.10
2023-12-14T18:33:23.748Z,5.07
2023-12-14T18:36:09.469Z,5.65
2023-12-14T18:38:55.088Z,4.55
2023-12-14T18:41:40.681Z,7.38
2023-12-14T18:44:26.382Z,4.22
2023-12-14T18:47:11.833Z,3.60
2023-12-14T18:49:57.772Z,4.10
2023-12-14T18:52:42.959Z,3.10
2023-12-14T18:55:28.488Z,3.17
2023-12-14T18:58:13.951Z,4.35
2023-12-14T19:01:03.201Z,4.97
2023-12-14T19:03:49.455Z,4.15
2023-12-14T19:06:34.921Z,4.22
2023-12-14T19:09:20.689Z,3.53
2023-12-14T19:12:06.285Z,3.22
2023-12-14T19:14:51.436Z,3.42
2023-12-14T19:17:38.855Z,3.58
2023-12-14T19:20:25.231Z,2.90
2023-12-14T19:23:10.455Z,2.92
2023-12-14T19:25:59.187Z,3.20
2023-12-14T19:28:45.164Z,3.05
2023-12-14T19:31:30.520Z,2.42
2023-12-14T19:34:16.098Z,2.40
2023-12-14T19:37:01.523Z,3.47
2023-12-14T19:39:47.041Z,3.60
2023-12-14T19:42:33.356Z,3.38
2023-12-14T19:45:18.541Z,3.30
2023-12-14T19:48:04.289Z,2.50
2023-12-14T19:50:49.658Z,3.70
2023-12-14T19:53:35.223Z,3.17
2023-12-14T19:56:20.789Z,3.53
2023-12-14T19:59:06.244Z,3.95
2023-12-14T20:01:51.760Z,2.25
2023-12-14T20:04:37.305Z,2.30
2023-12-14T20:07:22.669Z,3.38
2023-12-14T20:10:08.602Z,3.28
2023-12-14T20:12:54.512Z,3.25
2023-12-14T20:15:41.151Z,2.97
2023-12-14T20:18:26.634Z,3.10
2023-12-14T20:21:12.029Z,2.58
2023-12-14T20:23:57.458Z,2.45
2023-12-14T20:26:42.777Z,2.38
2023-12-14T20:29:28.450Z,2.42
2023-12-14T20:32:13.964Z,2.47
2023-12-14T20:34:59.363Z,6.65
2023-12-14T20:37:45.658Z,2.85
2023-12-14T20:40:31.416Z,3.03
2023-12-14T20:43:17.144Z,3.97
2023-12-14T20:46:02.751Z,2.83
2023-12-14T20:48:48.445Z,2.40
2023-12-14T20:51:33.962Z,2.58
2023-12-14T20:54:19.244Z,3.33
2023-12-14T20:57:04.920Z,3.75
2023-12-14T20:59:52.997Z,3.22
2023-12-14T21:02:39.489Z,4.10
2023-12-14T21:05:35.154Z,4.18
2023-12-14T21:08:28.520Z,3.50
2023-12-14T21:11:14.155Z,4.78
2023-12-14T21:13:59.749Z,4.18
2023-12-14T21:16:51.504Z,3.75
2023-12-14T21:19:52.865Z,5.90
2023-12-14T21:22:38.146Z,4.03
2023-12-14T21:25:27.860Z,4.22
2023-12-14T21:28:13.036Z,3.35
2023-12-14T21:30:59.663Z,3.10
2023-12-14T21:33:45.230Z,2.33
2023-12-14T21:36:30.537Z,3.00
2023-12-14T21:39:16.730Z,3.72
2023-12-14T21:42:02.189Z,2.92
2023-12-14T21:44:47.579Z,5.28
2023-12-14T21:47:34.886Z,2.67
2023-12-14T21:50:20.617Z,2.70
2023-12-14T21:53:06.490Z,4.13
2023-12-14T21:55:52.385Z,4.18
2023-12-14T21:58:38.028Z,3.53
2023-12-14T22:01:23.185Z,3.17
2023-12-14T22:04:08.612Z,2.97
2023-12-14T22:06:55.045Z,3.95
2023-12-14T22:09:40.393Z,3.63
2023-12-14T22:12:25.785Z,4.82
2023-12-14T22:15:12.077Z,6.03
2023-12-14T22:17:57.347Z,5.50
2023-12-14T22:20:42.846Z,4.40
2023-12-14T22:23:28.329Z,3.92
2023-12-14T22:26:13.531Z,5.20
2023-12-14T22:28:59.086Z,7.15
2023-12-14T22:31:44.135Z,5.80
2023-12-14T22:34:29.727Z,4.60
2023-12-14T22:37:15.228Z,4.28
2023-12-14T22:40:00.913Z,4.18
2023-12-14T22:42:46.517Z,4.43
2023-12-14T22:45:33.483Z,5.10
2023-12-14T22:48:19.167Z,5.47
2023-12-14T22:51:04.793Z,5.80
2023-12-14T22:53:50.219Z,3.58
2023-12-14T22:56:35.910Z,3.67
2023-12-14T22:59:21.731Z,6.50
2023-12-14T23:02:07.436Z,5.93
2023-12-14T23:04:53.050Z,4.78
2023-12-14T23:07:41.702Z,4.00
2023-12-14T23:10:27.142Z,4.10
2023-12-14T23:13:12.585Z,5.40
2023-12-14T23:15:58.127Z,3.10
2023-12-14T23:18:43.999Z,4.53
2023-12-14T23:21:29.321Z,4.78
2023-12-14T23:24:14.849Z,5.32
2023-12-14T23:27:00.434Z,4.22
2023-12-14T23:29:45.956Z,4.00
2023-12-14T23:32:31.500Z,6.03
2023-12-14T23:35:16.946Z,3.60
2023-12-14T23:38:02.394Z,4.32
2023-12-14T23:40:48.198Z,4.32
2023-12-14T23:43:34.316Z,4.95
2023-12-14T23:46:19.417Z,4.78
2023-12-14T23:49:04.928Z,3.28
2023-12-14T23:51:50.284Z,4.13
2023-12-14T23:54:35.590Z,4.53
2023-12-14T23:57:21.014Z,4.50
